createdAt,value
2018-12-05T00:00:57.091Z,18.8
2018-12-05T00:01:58.709Z,18.8
2018-12-05T00:03:00.036Z,18.8
2018-12-05T00:04:01.654Z,18.8
2018-12-05T00:05:03.551Z,18.8
2018-12-05T00:06:04.880Z,18.8
2018-12-05T00:07:06.480Z,18.8
2018-12-05T00:08:07.826Z,18.8
2018-12-05T00:09:09.723Z,18.8
2018-12-05T00:10:11.338Z,18.8
2018-12-05T00:11:13.237Z,18.8
2018-12-05T00:12:15.130Z,18.8
2018-12-05T00:13:16.203Z,18.8
2018-12-05T00:14:18.101Z,18.8
2018-12-05T00:15:19.719Z,18.8
2018-12-05T00:16:21.611Z,18.7
2018-12-05T00:17:22.961Z,18.8
2018-12-05T00:18:24.286Z,18.7
2018-12-05T00:19:25.925Z,18.8
2018-12-05T00:20:27.536Z,18.8
2018-12-05T00:21:28.880Z,18.7
2018-12-05T00:22:30.805Z,18.8
2018-12-05T00:23:32.426Z,18.8
2018-12-05T00:24:34.319Z,18.7
2018-12-05T00:25:36.227Z,18.8
2018-12-05T00:26:38.108Z,18.8
2018-12-05T00:27:39.950Z,18.7
2018-12-05T00:28:41.846Z,18.7
2018-12-05T00:29:43.189Z,18.7
2018-12-05T00:30:44.808Z,18.8
2018-12-05T00:31:46.424Z,18.8
2018-12-05T00:32:48.044Z,18.8
2018-12-05T00:33:49.942Z,18.8
2018-12-05T00:34:51.575Z,18.8
2018-12-05T00:35:53.194Z,18.8
2018-12-05T00:36:55.089Z,18.8
2018-12-05T00:37:56.985Z,18.7
2018-12-05T00:38:58.877Z,18.7
2018-12-05T00:40:00.496Z,18.8
2018-12-05T00:41:01.854Z,18.8
2018-12-05T00:42:03.748Z,18.7
2018-12-05T00:43:05.643Z,18.8
2018-12-05T00:44:07.265Z,18.7
2018-12-05T00:45:09.156Z,18.7
2018-12-05T00:46:11.049Z,18.7
2018-12-05T00:47:12.670Z,18.7
2018-12-05T00:48:14.017Z,18.7
2018-12-05T00:49:15.365Z,18.7
2018-12-05T00:50:17.254Z,18.7
2018-12-05T00:51:19.147Z,18.7
2018-12-05T00:52:21.038Z,18.6
2018-12-05T00:53:22.934Z,18.6
2018-12-05T00:54:24.828Z,18.7
2018-12-05T00:55:26.155Z,18.6
2018-12-05T00:56:28.048Z,18.7
2018-12-05T00:57:29.669Z,18.7
2018-12-05T00:58:31.018Z,18.7
2018-12-05T00:59:32.636Z,18.7
2018-12-05T01:00:34.532Z,18.7
2018-12-05T01:01:36.149Z,18.7
2018-12-05T01:02:37.469Z,18.7
2018-12-05T01:03:39.361Z,18.7
2018-12-05T01:04:40.717Z,18.6
2018-12-05T01:05:42.335Z,18.7
2018-12-05T01:06:43.662Z,18.6
2018-12-05T01:07:44.982Z,18.7
2018-12-05T01:08:46.604Z,18.7
2018-12-05T01:09:48.516Z,18.7
2018-12-05T01:10:49.841Z,18.7
2018-12-05T01:11:51.730Z,18.7
2018-12-05T01:12:53.625Z,18.7
2018-12-05T01:13:55.020Z,18.7
2018-12-05T01:14:56.346Z,18.7
2018-12-05T01:15:57.699Z,18.7
2018-12-05T01:16:59.594Z,18.7
2018-12-05T01:18:01.210Z,18.7
2018-12-05T01:19:03.107Z,18.7
2018-12-05T01:20:05.003Z,18.7
2018-12-05T01:21:06.605Z,18.7
2018-12-05T01:22:08.499Z,18.7
2018-12-05T01:23:10.394Z,18.7
2018-12-05T01:24:12.292Z,18.7
2018-12-05T01:25:13.910Z,18.7
2018-12-05T01:26:15.805Z,18.7
2018-12-05T01:27:17.147Z,18.7
2018-12-05T01:28:18.765Z,18.7
2018-12-05T01:29:20.379Z,18.7
2018-12-05T01:30:22.002Z,18.7
2018-12-05T01:31:23.896Z,18.7
2018-12-05T01:32:25.237Z,18.7
2018-12-05T01:33:26.863Z,18.7
2018-12-05T01:34:28.464Z,18.7
2018-12-05T01:35:30.125Z,18.7
2018-12-05T01:36:32.017Z,18.7
2018-12-05T01:37:33.063Z,18.7
2018-12-05T01:38:34.405Z,18.7
2018-12-05T01:39:36.028Z,18.7
2018-12-05T01:40:37.920Z,18.7
2018-12-05T01:41:39.520Z,18.7
2018-12-05T01:42:40.862Z,18.7
2018-12-05T01:43:42.487Z,18.7
2018-12-05T01:44:44.104Z,18.7
2018-12-05T01:45:45.999Z,18.7
2018-12-05T01:46:47.618Z,18.7
2018-12-05T01:47:49.218Z,18.7
2018-12-05T01:48:51.112Z,18.7
2018-12-05T01:49:53.049Z,18.7
2018-12-05T01:50:54.943Z,18.7
2018-12-05T01:51:56.287Z,18.7
2018-12-05T01:52:57.908Z,18.7
2018-12-05T01:53:59.805Z,18.7
2018-12-05T01:55:01.710Z,18.7
2018-12-05T01:56:03.608Z,18.7
2018-12-05T01:57:05.502Z,18.6
2018-12-05T01:58:07.397Z,18.6
2018-12-05T01:59:09.293Z,18.7
2018-12-05T02:00:10.895Z,18.7
2018-12-05T02:01:12.793Z,18.6
2018-12-05T02:02:14.689Z,18.6
2018-12-05T02:03:16.306Z,18.6
2018-12-05T02:04:17.932Z,18.6
2018-12-05T02:05:19.252Z,18.6
2018-12-05T02:06:21.149Z,18.7
2018-12-05T02:07:23.043Z,18.6
2018-12-05T02:08:24.940Z,18.6
2018-12-05T02:09:26.835Z,18.7
2018-12-05T02:10:28.460Z,18.6
2018-12-05T02:11:30.354Z,18.5
2018-12-05T02:12:32.251Z,18.6
2018-12-05T02:13:33.860Z,18.6
2018-12-05T02:14:35.188Z,18.5
2018-12-05T02:15:37.085Z,18.5
2018-12-05T02:16:38.980Z,18.6
2018-12-05T02:17:40.600Z,18.5
2018-12-05T02:18:42.212Z,18.6
2018-12-05T02:19:43.556Z,18.6
2018-12-05T02:20:45.175Z,18.6
2018-12-05T02:21:47.069Z,18.6
2018-12-05T02:22:48.123Z,18.6
2018-12-05T02:23:49.743Z,18.6
2018-12-05T02:24:51.347Z,18.6
2018-12-05T02:25:53.243Z,18.5
2018-12-05T02:26:54.930Z,18.5
2018-12-05T02:27:56.274Z,18.6
2018-12-05T02:28:57.321Z,18.5
2018-12-05T02:29:58.942Z,18.6
2018-12-05T02:31:00.570Z,18.5
2018-12-05T02:32:02.466Z,18.6
2018-12-05T02:33:04.089Z,18.5
2018-12-05T02:34:05.688Z,18.6
2018-12-05T02:35:07.587Z,18.6
2018-12-05T02:36:08.640Z,18.6
2018-12-05T02:37:10.538Z,18.6
2018-12-05T02:38:12.156Z,18.5
2018-12-05T02:39:13.760Z,18.6
2018-12-05T02:40:15.106Z,18.6
2018-12-05T02:41:17.002Z,18.6
2018-12-05T02:42:18.642Z,18.5
2018-12-05T02:43:20.543Z,18.6
2018-12-05T02:44:22.166Z,18.6
2018-12-05T02:45:24.056Z,18.6
2018-12-05T02:46:25.950Z,18.6
2018-12-05T02:47:27.581Z,18.6
2018-12-05T02:48:29.472Z,18.6
2018-12-05T02:49:31.089Z,18.6
2018-12-05T02:50:32.162Z,18.6
2018-12-05T02:51:33.770Z,18.5
2018-12-05T02:52:35.660Z,18.5
2018-12-05T02:53:37.556Z,18.5
2018-12-05T02:54:39.180Z,18.6
2018-12-05T02:55:41.073Z,18.5
2018-12-05T02:56:42.694Z,18.6
2018-12-05T02:57:44.312Z,18.5
2018-12-05T02:58:45.933Z,18.6
2018-12-05T02:59:47.278Z,18.5
2018-12-05T03:00:49.174Z,18.5
2018-12-05T03:01:50.798Z,18.6
2018-12-05T03:02:52.404Z,18.5
2018-12-05T03:03:53.482Z,18.6
2018-12-05T03:04:54.802Z,18.5
2018-12-05T03:05:56.695Z,18.6
2018-12-05T03:06:58.351Z,18.5
2018-12-05T03:08:00.243Z,18.6
2018-12-05T03:09:01.867Z,18.6
2018-12-05T03:10:03.492Z,18.5
2018-12-05T03:11:05.118Z,18.5
2018-12-05T03:12:06.470Z,18.5
2018-12-05T03:13:07.797Z,18.5
2018-12-05T03:14:09.413Z,18.6
2018-12-05T03:15:11.307Z,18.5
2018-12-05T03:16:12.634Z,18.6
2018-12-05T03:17:13.960Z,18.5
2018-12-05T03:18:15.283Z,18.5
2018-12-05T03:19:16.908Z,18.4
2018-12-05T03:20:18.526Z,18.6
2018-12-05T03:21:20.147Z,18.4
2018-12-05T03:22:21.766Z,18.5
2018-12-05T03:23:23.663Z,18.5
2018-12-05T03:24:25.285Z,18.6
2018-12-05T03:25:27.187Z,18.5
2018-12-05T03:26:29.082Z,18.5
2018-12-05T03:27:30.978Z,18.5
2018-12-05T03:28:32.574Z,18.5
2018-12-05T03:29:34.198Z,18.5
2018-12-05T03:30:35.820Z,18.4
2018-12-05T03:31:37.715Z,18.5
2018-12-05T03:32:39.611Z,18.5
2018-12-05T03:33:41.508Z,18.5
2018-12-05T03:34:43.550Z,18.6
2018-12-05T03:35:44.902Z,18.5
2018-12-05T03:36:46.526Z,18.4
2018-12-05T03:37:48.425Z,18.4
2018-12-05T03:38:50.321Z,18.4
2018-12-05T03:39:52.234Z,18.4
2018-12-05T03:40:54.137Z,18.6
2018-12-05T03:41:56.033Z,18.5
2018-12-05T03:42:57.928Z,18.5
2018-12-05T03:43:59.530Z,18.5
2018-12-05T03:45:01.226Z,18.6
2018-12-05T03:46:03.112Z,18.5
2018-12-05T03:47:05.015Z,18.6
2018-12-05T03:48:06.934Z,18.4
2018-12-05T03:49:08.554Z,18.5
2018-12-05T03:50:10.153Z,18.6
2018-12-05T03:51:11.754Z,18.4
2018-12-05T03:52:13.652Z,18.5
2018-12-05T03:53:15.003Z,18.5
2018-12-05T03:54:16.323Z,18.5
2018-12-05T03:55:20.117Z,18.5
2018-12-05T03:56:21.838Z,18.4
2018-12-05T03:57:23.727Z,18.4
2018-12-05T03:58:25.629Z,18.5
2018-12-05T03:59:27.244Z,18.4
2018-12-05T04:00:29.143Z,18.5
2018-12-05T04:01:30.191Z,18.5
2018-12-05T04:02:32.087Z,18.4
2018-12-05T04:03:33.981Z,18.5
2018-12-05T04:04:35.614Z,18.5
2018-12-05T04:05:37.509Z,18.5
2018-12-05T04:06:39.131Z,18.5
2018-12-05T04:07:41.027Z,18.5
2018-12-05T04:08:42.923Z,18.5
2018-12-05T04:09:45.170Z,18.5
2018-12-05T04:10:46.609Z,18.5
2018-12-05T04:11:48.503Z,18.5
2018-12-05T04:12:50.108Z,18.5
2018-12-05T04:13:52.022Z,18.5
2018-12-05T04:14:53.353Z,18.5
2018-12-05T04:15:54.972Z,18.5
2018-12-05T04:16:56.870Z,18.5
2018-12-05T04:17:58.769Z,18.6
2018-12-05T04:19:00.662Z,18.5
2018-12-05T04:20:02.558Z,18.6
2018-12-05T04:21:04.209Z,18.4
2018-12-05T04:22:05.828Z,18.5
2018-12-05T04:23:07.160Z,18.5
2018-12-05T04:24:09.089Z,18.4
2018-12-05T04:25:10.718Z,18.6
2018-12-05T04:26:12.063Z,18.5
2018-12-05T04:27:13.682Z,18.5
2018-12-05T04:28:15.576Z,18.6
2018-12-05T04:29:16.907Z,18.5
2018-12-05T04:30:18.251Z,18.4
2018-12-05T04:31:19.606Z,18.6
2018-12-05T04:32:20.934Z,18.6
2018-12-05T04:33:22.843Z,18.6
2018-12-05T04:34:24.506Z,18.6
2018-12-05T04:35:26.404Z,18.6
2018-12-05T04:36:27.728Z,18.5
2018-12-05T04:37:29.352Z,18.4
2018-12-05T04:38:31.248Z,18.5
2018-12-05T04:39:32.881Z,18.6
2018-12-05T04:40:34.766Z,18.5
2018-12-05T04:41:36.664Z,18.5
2018-12-05T04:42:38.561Z,18.5
2018-12-05T04:43:40.506Z,18.4
2018-12-05T04:44:42.127Z,18.5
2018-12-05T04:45:43.478Z,18.5
2018-12-05T04:46:45.377Z,18.4
2018-12-05T04:47:46.998Z,18.5
2018-12-05T04:48:48.898Z,18.6
2018-12-05T04:49:50.800Z,18.5
2018-12-05T04:50:52.709Z,18.4
2018-12-05T04:51:54.324Z,18.6
2018-12-05T04:52:56.222Z,18.5
2018-12-05T04:53:58.117Z,18.5
2018-12-05T04:55:00.032Z,18.5
2018-12-05T04:56:01.644Z,18.5
2018-12-05T04:57:03.245Z,18.5
2018-12-05T04:58:04.846Z,18.5
2018-12-05T04:59:06.812Z,18.5
2018-12-05T05:00:08.705Z,18.5
2018-12-05T05:01:10.324Z,18.4
2018-12-05T05:02:12.231Z,18.4
2018-12-05T05:03:14.130Z,18.6
2018-12-05T05:04:15.763Z,18.5
2018-12-05T05:05:17.661Z,18.4
2018-12-05T05:06:19.583Z,18.5
2018-12-05T05:07:21.197Z,18.5
2018-12-05T05:08:23.099Z,18.4
2018-12-05T05:09:24.712Z,18.5
2018-12-05T05:10:26.608Z,18.4
2018-12-05T05:11:28.229Z,18.4
2018-12-05T05:12:29.834Z,18.5
2018-12-05T05:13:31.731Z,18.4
2018-12-05T05:14:33.624Z,18.4
2018-12-05T05:15:35.244Z,18.5
2018-12-05T05:16:37.194Z,18.5
2018-12-05T05:17:38.507Z,18.5
2018-12-05T05:18:40.112Z,18.5
2018-12-05T05:19:41.729Z,18.5
2018-12-05T05:20:43.060Z,18.6
2018-12-05T05:21:44.675Z,18.5
2018-12-05T05:22:46.569Z,18.5
2018-12-05T05:23:48.188Z,18.5
2018-12-05T05:24:50.084Z,18.6
2018-12-05T05:25:51.705Z,18.6
2018-12-05T05:26:53.305Z,18.6
2018-12-05T05:27:54.902Z,18.7
2018-12-05T05:28:56.799Z,18.6
2018-12-05T05:29:58.422Z,18.6
2018-12-05T05:31:00.043Z,18.6
2018-12-05T05:32:01.988Z,18.6
2018-12-05T05:33:03.604Z,18.6
2018-12-05T05:34:05.224Z,18.7
2018-12-05T05:35:07.129Z,18.6
2018-12-05T05:36:09.028Z,18.7
2018-12-05T05:37:10.924Z,18.7
2018-12-05T05:38:12.822Z,18.7
2018-12-05T05:39:14.147Z,18.7
2018-12-05T05:40:15.470Z,18.7
2018-12-05T05:41:17.090Z,18.7
2018-12-05T05:42:18.692Z,18.7
2018-12-05T05:43:20.292Z,18.7
2018-12-05T05:44:21.701Z,18.7
2018-12-05T05:45:23.322Z,18.7
2018-12-05T05:46:24.368Z,18.7
2018-12-05T05:47:26.263Z,18.7
2018-12-05T05:48:27.607Z,18.7
2018-12-05T05:49:28.959Z,18.7
2018-12-05T05:50:30.280Z,18.7
2018-12-05T05:51:31.627Z,18.7
2018-12-05T05:52:33.250Z,18.8
2018-12-05T05:53:35.144Z,18.8
2018-12-05T05:54:37.092Z,18.7
2018-12-05T05:55:38.990Z,18.7
2018-12-05T05:56:40.888Z,18.7
2018-12-05T05:57:42.235Z,18.7
2018-12-05T05:58:43.857Z,18.8
2018-12-05T05:59:45.204Z,18.7
2018-12-05T06:00:46.525Z,18.7
2018-12-05T06:01:48.423Z,18.7
2018-12-05T06:02:49.748Z,18.7
2018-12-05T06:03:51.366Z,18.7
2018-12-05T06:04:53.267Z,18.7
2018-12-05T06:05:54.866Z,18.7
2018-12-05T06:06:56.219Z,18.7
2018-12-05T06:07:57.841Z,18.8
2018-12-05T06:08:59.737Z,18.8
2018-12-05T06:10:01.359Z,18.8
2018-12-05T06:11:02.705Z,18.7
2018-12-05T06:12:04.603Z,18.7
2018-12-05T06:13:06.223Z,18.8
2018-12-05T06:14:08.117Z,18.8
2018-12-05T06:15:09.723Z,18.8
2018-12-05T06:16:11.349Z,18.8
2018-12-05T06:17:13.242Z,18.7
2018-12-05T06:18:15.136Z,18.7
2018-12-05T06:19:16.762Z,18.7
2018-12-05T06:20:18.654Z,18.7
2018-12-05T06:21:20.550Z,18.7
2018-12-05T06:22:22.444Z,18.7
2018-12-05T06:23:23.767Z,18.7
2018-12-05T06:24:25.671Z,18.7
2018-12-05T06:25:27.369Z,18.7
2018-12-05T06:26:28.991Z,18.7
2018-12-05T06:27:30.609Z,18.7
2018-12-05T06:28:32.507Z,18.6
2018-12-05T06:29:34.403Z,18.7
2018-12-05T06:30:36.028Z,18.7
2018-12-05T06:31:37.625Z,18.7
2018-12-05T06:32:38.981Z,18.8
2018-12-05T06:33:40.577Z,18.7
2018-12-05T06:34:42.476Z,18.7
2018-12-05T06:35:44.371Z,18.7
2018-12-05T06:36:45.972Z,18.7
2018-12-05T06:37:47.594Z,18.7
2018-12-05T06:38:49.490Z,18.7
2018-12-05T06:39:50.816Z,18.7
2018-12-05T06:40:52.145Z,18.7
2018-12-05T06:41:53.739Z,18.7
2018-12-05T06:42:55.360Z,18.7
2018-12-05T06:43:56.978Z,18.8
2018-12-05T06:44:58.877Z,18.8
2018-12-05T06:46:00.494Z,18.8
2018-12-05T06:47:02.119Z,18.8
2018-12-05T06:48:03.738Z,18.7
2018-12-05T06:49:05.637Z,18.7
2018-12-05T06:50:07.535Z,18.7
2018-12-05T06:51:09.433Z,18.7
2018-12-05T06:52:11.330Z,18.6
2018-12-05T06:53:12.951Z,18.7
2018-12-05T06:54:14.846Z,18.7
2018-12-05T06:55:16.190Z,18.7
2018-12-05T06:56:17.789Z,18.7
2018-12-05T06:57:19.414Z,18.8
2018-12-05T06:58:21.376Z,18.8
2018-12-05T06:59:22.709Z,18.7
2018-12-05T07:00:24.329Z,18.7
2018-12-05T07:01:25.929Z,18.7
2018-12-05T07:02:27.527Z,18.7
2018-12-05T07:03:29.151Z,18.7
2018-12-05T07:04:31.048Z,18.7
2018-12-05T07:05:32.402Z,18.7
2018-12-05T07:06:34.007Z,18.7
2018-12-05T07:07:35.905Z,18.7
2018-12-05T07:08:37.525Z,18.7
2018-12-05T07:09:38.850Z,18.7
2018-12-05T07:10:40.450Z,18.7
2018-12-05T07:11:42.347Z,18.7
2018-12-05T07:12:43.481Z,18.7
2018-12-05T07:13:45.390Z,18.7
2018-12-05T07:14:47.286Z,18.7
2018-12-05T07:15:49.182Z,18.7
2018-12-05T07:16:51.125Z,18.7
2018-12-05T07:17:52.732Z,18.7
2018-12-05T07:18:54.625Z,18.7
2018-12-05T07:19:56.228Z,18.7
2018-12-05T07:20:58.123Z,18.7
2018-12-05T07:22:00.022Z,18.7
2018-12-05T07:23:01.916Z,18.8
2018-12-05T07:24:03.587Z,18.7
2018-12-05T07:25:04.923Z,18.7
2018-12-05T07:26:06.808Z,18.7
2018-12-05T07:27:08.707Z,18.8
2018-12-05T07:28:10.606Z,18.8
2018-12-05T07:29:12.503Z,18.8
2018-12-05T07:30:14.125Z,18.8
2018-12-05T07:31:15.749Z,18.8
2018-12-05T07:32:17.650Z,18.8
2018-12-05T07:33:19.541Z,18.8
2018-12-05T07:34:20.897Z,18.8
2018-12-05T07:35:22.791Z,18.8
2018-12-05T07:36:24.409Z,18.8
2018-12-05T07:37:25.756Z,18.8
2018-12-05T07:38:27.362Z,18.8
2018-12-05T07:39:28.131Z,18.8
2018-12-05T07:40:30.028Z,18.8
2018-12-05T07:41:31.949Z,18.8
2018-12-05T07:42:33.575Z,18.8
2018-12-05T07:43:35.470Z,18.8
2018-12-05T07:44:36.817Z,18.8
2018-12-05T07:45:38.456Z,18.8
2018-12-05T07:46:39.223Z,18.8
2018-12-05T07:47:40.594Z,18.8
2018-12-05T07:48:41.922Z,18.8
2018-12-05T07:49:43.529Z,18.9
2018-12-05T07:50:45.148Z,18.9
2018-12-05T07:51:47.045Z,19
2018-12-05T07:52:48.940Z,18.8
2018-12-05T07:53:50.836Z,18.9
2018-12-05T07:54:52.735Z,18.9
2018-12-05T07:55:54.629Z,18.9
2018-12-05T07:56:56.527Z,18.8
2018-12-05T07:57:58.432Z,19
2018-12-05T07:59:00.330Z,18.8
2018-12-05T08:00:01.984Z,18.9
2018-12-05T08:01:03.885Z,19
2018-12-05T08:02:05.236Z,18.9
2018-12-05T08:03:06.562Z,18.9
2018-12-05T08:04:08.182Z,18.9
2018-12-05T08:05:10.081Z,19
2018-12-05T08:06:11.727Z,19
2018-12-05T08:07:13.343Z,18.9
2018-12-05T08:08:15.242Z,18.9
2018-12-05T08:09:17.138Z,19
2018-12-05T08:10:19.084Z,19
2018-12-05T08:11:20.984Z,19
2018-12-05T08:12:22.309Z,18.9
2018-12-05T08:13:23.360Z,18.9
2018-12-05T08:14:24.986Z,19
2018-12-05T08:15:26.605Z,18.9
2018-12-05T08:16:27.937Z,18.9
2018-12-05T08:17:29.558Z,18.9
2018-12-05T08:18:31.182Z,19
2018-12-05T08:19:32.804Z,18.9
2018-12-05T08:20:34.875Z,18.9
2018-12-05T08:21:36.222Z,18.9
2018-12-05T08:22:37.571Z,19
2018-12-05T08:23:38.919Z,19
2018-12-05T08:24:40.541Z,18.9
2018-12-05T08:25:42.219Z,18.9
2018-12-05T08:26:43.844Z,18.9
2018-12-05T08:27:45.744Z,19
2018-12-05T08:28:47.364Z,18.9
2018-12-05T08:29:48.722Z,18.9
2018-12-05T08:30:50.347Z,19
2018-12-05T08:31:52.243Z,18.9
2018-12-05T08:32:53.312Z,19
2018-12-05T08:33:55.207Z,18.9
2018-12-05T08:34:57.105Z,19
2018-12-05T08:35:59.005Z,18.9
2018-12-05T08:37:00.661Z,18.9
2018-12-05T08:38:01.990Z,19
2018-12-05T08:39:03.396Z,18.9
2018-12-05T08:40:05.017Z,18.8
2018-12-05T08:41:06.636Z,18.8
2018-12-05T08:42:08.264Z,18.9
2018-12-05T08:43:10.157Z,18.8
2018-12-05T08:44:11.777Z,18.9
2018-12-05T08:45:13.677Z,18.8
2018-12-05T08:46:15.003Z,19
2018-12-05T08:47:16.902Z,18.9
2018-12-05T08:48:18.800Z,18.9
2018-12-05T08:49:20.147Z,18.9
2018-12-05T08:50:22.047Z,18.9
2018-12-05T08:51:23.654Z,19
2018-12-05T08:52:25.558Z,19
2018-12-05T08:53:27.179Z,18.9
2018-12-05T08:54:29.077Z,19
2018-12-05T08:55:30.681Z,19
2018-12-05T08:56:32.006Z,18.9
2018-12-05T08:57:33.904Z,18.9
2018-12-05T08:58:35.244Z,18.9
2018-12-05T08:59:36.855Z,18.9
2018-12-05T09:00:38.485Z,18.9
2018-12-05T09:01:40.379Z,18.9
2018-12-05T09:02:42.275Z,18.9
2018-12-05T09:03:43.659Z,18.9
2018-12-05T09:04:45.550Z,18.9
2018-12-05T09:05:47.446Z,19
2018-12-05T09:06:49.101Z,18.9
2018-12-05T09:07:50.425Z,18.9
2018-12-05T09:08:52.496Z,19.1
2018-12-05T09:09:54.389Z,19
2018-12-05T09:10:56.288Z,19.1
2018-12-05T09:11:58.029Z,19.1
2018-12-05T09:12:59.629Z,19.1
2018-12-05T09:14:01.075Z,19.1
2018-12-05T09:15:02.704Z,19.1
2018-12-05T09:16:04.308Z,19.1
2018-12-05T09:17:05.934Z,19.1
2018-12-05T09:18:07.552Z,19.2
2018-12-05T09:19:09.181Z,19.2
2018-12-05T09:20:10.808Z,19.1
2018-12-05T09:21:13.366Z,19.2
2018-12-05T09:22:15.358Z,19.1
2018-12-05T09:23:17.012Z,19.1
2018-12-05T09:24:18.347Z,19.2
2018-12-05T09:25:20.065Z,19.2
2018-12-05T09:26:21.669Z,19.2
2018-12-05T09:27:23.041Z,19
2018-12-05T09:28:24.942Z,19.1
2018-12-05T09:29:26.627Z,19
2018-12-05T09:30:28.226Z,19.1
2018-12-05T09:31:29.709Z,19.1
2018-12-05T09:32:31.343Z,19.1
2018-12-05T09:33:32.724Z,19.1
2018-12-05T09:34:34.423Z,19.1
2018-12-05T09:35:36.040Z,19.1
2018-12-05T09:36:37.403Z,19.1
2018-12-05T09:37:39.232Z,19.1
2018-12-05T09:38:40.872Z,19.1
2018-12-05T09:39:42.244Z,19.2
2018-12-05T09:40:43.576Z,19.1
2018-12-05T09:41:45.199Z,19.2
2018-12-05T09:42:46.879Z,19.1
2018-12-05T09:43:48.514Z,19.2
2018-12-05T09:44:50.402Z,19.2
2018-12-05T09:45:52.040Z,19.2
2018-12-05T09:46:53.485Z,19.2
2018-12-05T09:47:55.197Z,19.2
2018-12-05T09:48:58.875Z,19.3
2018-12-05T09:50:00.615Z,19.3
2018-12-05T09:51:02.289Z,19.3
2018-12-05T09:52:03.851Z,19.3
2018-12-05T09:53:06.077Z,19.3
2018-12-05T09:54:08.196Z,19.2
2018-12-05T09:55:09.822Z,19.2
2018-12-05T09:56:11.171Z,19.2
2018-12-05T09:57:12.802Z,19.2
2018-12-05T09:58:14.143Z,19.2
2018-12-05T09:59:15.494Z,19.2
2018-12-05T10:00:17.158Z,19.2
2018-12-05T10:01:18.838Z,19.2
2018-12-05T10:02:20.451Z,19.3
2018-12-05T10:03:22.171Z,19.2
2018-12-05T10:04:24.073Z,19.3
2018-12-05T10:05:25.682Z,19.4
2018-12-05T10:06:27.299Z,19.3
2018-12-05T10:07:29.205Z,19.2
2018-12-05T10:08:31.099Z,19.3
2018-12-05T10:09:33.078Z,19.2
2018-12-05T10:10:34.123Z,19.3
2018-12-05T10:11:35.728Z,19.3
2018-12-05T10:12:37.629Z,19.4
2018-12-05T10:13:38.956Z,19.4
2018-12-05T10:14:40.567Z,19.4
2018-12-05T10:15:41.920Z,19.4
2018-12-05T10:16:43.245Z,19.4
2018-12-05T10:17:44.583Z,19.4
2018-12-05T10:18:45.931Z,19.5
2018-12-05T10:19:47.830Z,19.3
2018-12-05T10:20:55.888Z,19.5
2018-12-05T10:21:58.037Z,19.5
2018-12-05T10:22:59.386Z,19.4
2018-12-05T10:24:00.731Z,19.4
2018-12-05T10:25:02.353Z,19.4
2018-12-05T10:26:03.978Z,19.4
2018-12-05T10:27:05.878Z,19.4
2018-12-05T10:28:07.770Z,19.4
2018-12-05T10:29:09.684Z,19.3
2018-12-05T10:30:11.009Z,19.3
2018-12-05T10:31:12.906Z,19.4
2018-12-05T10:32:14.508Z,19.5
2018-12-05T10:33:15.866Z,19.4
2018-12-05T10:34:17.761Z,19.5
2018-12-05T10:35:19.403Z,19.4
2018-12-05T10:36:20.820Z,19.4
2018-12-05T10:37:22.237Z,19.4
2018-12-05T10:38:24.136Z,19.4
2018-12-05T10:39:25.741Z,19.4
2018-12-05T10:40:27.428Z,19.5
2018-12-05T10:41:29.136Z,19.4
2018-12-05T10:42:30.734Z,19.4
2018-12-05T10:43:32.633Z,19.4
2018-12-05T10:44:35.763Z,19.4
2018-12-05T10:45:37.661Z,19.5
2018-12-05T10:46:39.565Z,19.5
2018-12-05T10:47:40.910Z,19.5
2018-12-05T10:48:42.811Z,19.5
2018-12-05T10:49:44.137Z,19.5
2018-12-05T10:50:45.744Z,19.5
2018-12-05T10:51:47.640Z,19.5
2018-12-05T10:52:49.268Z,19.5
2018-12-05T10:53:50.889Z,19.5
2018-12-05T10:54:52.790Z,19.5
2018-12-05T10:55:54.412Z,19.5
2018-12-05T10:56:56.039Z,19.5
2018-12-05T10:57:57.665Z,19.5
2018-12-05T10:58:59.567Z,19.5
2018-12-05T11:00:01.471Z,19.5
2018-12-05T11:01:03.370Z,19.5
2018-12-05T11:02:04.995Z,19.5
2018-12-05T11:03:06.901Z,19.6
2018-12-05T11:04:08.528Z,19.6
2018-12-05T11:05:09.580Z,19.6
2018-12-05T11:06:11.185Z,19.6
2018-12-05T11:07:13.085Z,19.6
2018-12-05T11:08:14.690Z,19.6
2018-12-05T11:09:16.294Z,19.6
2018-12-05T11:10:17.915Z,19.6
2018-12-05T11:11:19.520Z,19.6
2018-12-05T11:12:20.855Z,19.7
2018-12-05T11:13:22.207Z,19.5
2018-12-05T11:14:23.831Z,19.4
2018-12-05T11:15:25.745Z,19.4
2018-12-05T11:16:27.467Z,19.5
2018-12-05T11:17:29.871Z,19.5
2018-12-05T11:18:32.854Z,19.5
2018-12-05T11:19:34.301Z,19.5
2018-12-05T11:20:36.210Z,19.5
2018-12-05T11:21:38.150Z,19.6
2018-12-05T11:22:40.072Z,19.6
2018-12-05T11:23:41.699Z,19.6
2018-12-05T11:24:43.051Z,19.6
2018-12-05T11:25:44.991Z,19.6
2018-12-05T11:26:46.894Z,19.6
2018-12-05T11:27:48.794Z,19.6
2018-12-05T11:28:50.420Z,19.6
2018-12-05T11:29:52.050Z,19.5
2018-12-05T11:30:53.949Z,19.7
2018-12-05T11:31:55.846Z,19.5
2018-12-05T11:32:57.747Z,19.5
2018-12-05T11:33:59.381Z,19.5
2018-12-05T11:35:01.059Z,19.5
2018-12-05T11:36:02.693Z,19.5
2018-12-05T11:37:04.322Z,19.5
2018-12-05T11:38:05.928Z,19.5
2018-12-05T11:39:07.549Z,19.5
2018-12-05T11:40:09.449Z,19.5
2018-12-05T11:41:11.072Z,19.6
2018-12-05T11:42:12.972Z,19.6
2018-12-05T11:43:14.602Z,19.6
2018-12-05T11:44:15.949Z,19.6
2018-12-05T11:45:17.578Z,19.6
2018-12-05T11:46:19.201Z,19.5
2018-12-05T11:47:21.099Z,19.5
2018-12-05T11:48:22.998Z,19.5
2018-12-05T11:49:24.635Z,19.5
2018-12-05T11:50:26.447Z,19.5
2018-12-05T11:51:28.085Z,19.5
2018-12-05T11:52:29.822Z,19.5
2018-12-05T11:53:31.460Z,19.5
2018-12-05T11:54:33.364Z,19.5
2018-12-05T11:55:35.039Z,19.5
2018-12-05T11:56:36.967Z,19.5
2018-12-05T11:57:38.868Z,19.6
2018-12-05T11:58:40.495Z,19.7
2018-12-05T11:59:42.124Z,19.6
2018-12-05T12:00:43.775Z,19.6
2018-12-05T12:01:44.838Z,19.6
2018-12-05T12:02:46.733Z,19.6
2018-12-05T12:03:48.715Z,19.7
2018-12-05T12:04:50.379Z,19.7
2018-12-05T12:05:51.746Z,19.7
2018-12-05T12:06:53.643Z,19.6
2018-12-05T12:07:55.555Z,19.7
2018-12-05T12:08:56.903Z,19.7
2018-12-05T12:09:58.256Z,19.6
2018-12-05T12:10:59.863Z,19.7
2018-12-05T12:12:01.214Z,19.6
2018-12-05T12:13:02.918Z,19.6
2018-12-05T12:14:03.977Z,19.6
2018-12-05T12:15:05.602Z,19.6
2018-12-05T12:16:07.503Z,19.6
2018-12-05T12:17:09.405Z,19.6
2018-12-05T12:18:11.030Z,19.8
2018-12-05T12:19:12.356Z,19.7
2018-12-05T12:20:14.301Z,19.7
2018-12-05T12:21:15.930Z,19.6
2018-12-05T12:22:17.534Z,19.8
2018-12-05T12:23:19.157Z,19.7
2018-12-05T12:24:20.863Z,19.7
2018-12-05T12:25:22.214Z,19.8
2018-12-05T12:26:23.813Z,19.7
2018-12-05T12:27:25.440Z,19.6
2018-12-05T12:28:26.787Z,19.6
2018-12-05T12:29:28.685Z,19.6
2018-12-05T12:30:30.581Z,19.6
2018-12-05T12:31:31.913Z,19.7
2018-12-05T12:32:33.807Z,19.6
2018-12-05T12:33:35.432Z,19.7
2018-12-05T12:34:37.326Z,19.7
2018-12-05T12:35:38.951Z,19.6
2018-12-05T12:36:40.607Z,19.6
2018-12-05T12:37:42.502Z,19.6
2018-12-05T12:38:44.473Z,19.5
2018-12-05T12:39:46.089Z,19.5
2018-12-05T12:40:47.689Z,19.6
2018-12-05T12:41:49.584Z,19.6
2018-12-05T12:42:50.911Z,19.5
2018-12-05T12:43:52.804Z,19.6
2018-12-05T12:44:54.701Z,19.5
2018-12-05T12:45:56.599Z,19.6
2018-12-05T12:46:57.945Z,19.6
2018-12-05T12:47:59.572Z,19.7
2018-12-05T12:49:01.197Z,19.7
2018-12-05T12:50:02.818Z,19.7
2018-12-05T12:51:04.719Z,19.7
2018-12-05T12:52:06.328Z,19.7
2018-12-05T12:53:07.928Z,19.6
2018-12-05T12:54:09.261Z,19.7
2018-12-05T12:55:11.165Z,19.8
2018-12-05T12:56:12.767Z,19.7
2018-12-05T12:57:14.367Z,19.7
2018-12-05T12:58:15.992Z,19.7
2018-12-05T12:59:17.337Z,19.8
2018-12-05T13:00:18.674Z,19.8
2018-12-05T13:01:20.270Z,19.8
2018-12-05T13:02:23.631Z,19.8
2018-12-05T13:03:25.326Z,19.8
2018-12-05T13:04:26.947Z,19.8
2018-12-05T13:05:28.569Z,19.7
2018-12-05T13:06:30.197Z,19.8
2018-12-05T13:07:31.844Z,19.7
2018-12-05T13:08:33.464Z,19.8
2018-12-05T13:09:35.086Z,19.8
2018-12-05T13:10:36.407Z,19.9
2018-12-05T13:11:38.307Z,19.8
2018-12-05T13:12:40.207Z,19.8
2018-12-05T13:13:41.826Z,19.8
2018-12-05T13:14:43.449Z,19.8
2018-12-05T13:15:45.349Z,19.7
2018-12-05T13:16:46.981Z,19.8
2018-12-05T13:17:48.027Z,19.7
2018-12-05T13:18:49.649Z,19.7
2018-12-05T13:19:51.269Z,19.7
2018-12-05T13:20:52.892Z,19.7
2018-12-05T13:21:54.514Z,19.6
2018-12-05T13:22:56.410Z,19.7
2018-12-05T13:23:58.047Z,19.6
2018-12-05T13:24:59.383Z,19.7
2018-12-05T13:26:00.727Z,19.7
2018-12-05T13:27:02.723Z,19.7
2018-12-05T13:28:04.344Z,19.8
2018-12-05T13:29:05.949Z,19.8
2018-12-05T13:30:07.856Z,19.7
2018-12-05T13:31:09.205Z,19.8
2018-12-05T13:32:10.831Z,19.7
2018-12-05T13:33:12.157Z,19.7
2018-12-05T13:34:13.781Z,19.7
2018-12-05T13:35:15.390Z,19.6
2018-12-05T13:36:17.069Z,19.6
2018-12-05T13:37:18.965Z,19.7
2018-12-05T13:38:20.861Z,19.7
2018-12-05T13:39:22.486Z,19.8
2018-12-05T13:40:24.397Z,19.8
2018-12-05T13:41:26.329Z,19.8
2018-12-05T13:42:28.225Z,19.7
2018-12-05T13:43:29.572Z,19.8